Latest Weather Observations for Edithburgh

IDS60801

Issued at 3:32 pm CDT Tuesday 31 March 2015 (issued every 30 minutes, with the page automatically refreshed every 10 minutes)

About weather observations | Map of weather stations | Latest weather observations for SA | Other Formats
Station Details ID: 022046 Name: EDITHBURGH Lat: -35.11 Lon: 137.74 Height: 6.0 m
Data from the previous 72 hours. | See also: Recent months at Edithburgh
Date/Time
CDT
Temp
°C
App
Temp
°C
Dew
Point
Rel
Hum
%
Delta-T
°C
Wind Press
QNH
hPa
Press
MSL
hPa
Rain
since 9 am
mm
Dir
 
Spd
km/h
Gust
km/h
Spd
kts
Gust
kts
31/03:30pm 24.5 22.4 12.4 46 6.9 ENE 15 19 8 10 1019.5 1019.5 0.0
31/03:00pm 23.9 21.5 12.5 49 6.5 ENE 17 22 9 12 1020.0 1019.9 0.0
31/02:30pm 23.8 21.1 13.0 50 6.2 ENE 19 22 10 12 1020.3 1020.2 0.0
31/02:00pm 23.4 21.2 13.4 53 5.8 ENE 17 24 9 13 1020.9 1020.8 0.0
31/01:30pm 23.4 21.3 13.6 54 5.7 NE 17 20 9 11 1021.3 1021.2 0.0
31/01:00pm 22.8 20.1 13.4 55 5.4 NE 20 24 11 13 1021.9 1021.8 0.0
31/12:30pm 22.1 19.4 13.0 56 5.2 NE 19 24 10 13 1022.4 1022.3 0.0
31/12:00pm 22.0 19.7 13.1 57 5.1 NE 17 22 9 12 1022.8 1022.7 0.0
31/11:30am 21.9 19.3 13.1 57 5.0 NE 19 26 10 14 1023.1 1023.0 0.0
31/11:00am 22.1 19.4 13.0 56 5.2 NE 19 26 10 14 1023.5 1023.4 0.0
31/10:30am 21.6 19.4 13.2 59 4.8 NNE 17 24 9 13 1023.9 1023.8 0.0
31/10:00am 20.9 18.4 13.4 62 4.3 NE 19 28 10 15 1023.8 1023.7 0.0
31/09:30am 20.5 17.6 12.9 61 4.3 NE 20 30 11 16 1023.7 1023.6 0.0
31/09:00am 20.1 17.7 13.8 67 3.6 NNE 19 28 10 15 1023.6 1023.5 0.0
31/08:30am 19.4 18.3 14.2 72 3.0 NNE 13 19 7 10 1023.6 1023.5 0.0
31/08:00am 18.5 17.0 14.1 75 2.5 NNE 15 22 8 12 1023.4 1023.3 0.0
31/07:30am 17.3 16.8 14.9 86 1.4 NNE 11 19 6 10 1023.1 1023.0 0.0
31/07:00am 13.3 13.0 12.7 96 0.3 NNE 6 9 3 5 1023.1 1023.0 0.0
31/06:30am 13.2 12.7 12.6 96 0.3 N 7 7 4 4 1023.2 1023.1 0.0
31/06:00am 15.8 16.2 14.7 93 0.6 NNE 6 7 3 4 1023.1 1023.0 0.0
31/05:30am 16.9 18.0 15.5 91 0.8 E 4 6 2 3 1023.3 1023.2 0.0
31/05:00am 16.5 16.4 14.9 90 0.9 E 9 11 5 6 1022.8 1022.7 0.0
31/04:30am 16.8 17.1 15.1 90 1.0 E 7 7 4 4 1023.3 1023.2 0.0
31/04:00am 16.8 16.9 14.5 86 1.3 E 7 9 4 5 1023.5 1023.4 0.0
31/03:30am 17.1 16.7 14.1 82 1.7 E 9 9 5 5 1023.5 1023.4 0.0
31/03:00am 17.9 16.8 14.2 79 2.1 E 13 15 7 8 1023.5 1023.4 0.0
31/02:30am 18.4 17.0 14.4 77 2.3 E 15 19 8 10 1023.6 1023.5 0.0
31/02:00am 18.4 16.4 13.8 74 2.6 E 17 20 9 11 1023.7 1023.6 0.0
31/01:30am 18.4 16.6 14.4 77 2.3 E 17 20 9 11 1023.6 1023.5 0.0
31/01:00am 18.4 16.9 14.2 76 2.4 E 15 20 8 11 1023.6 1023.5 0.0
31/12:30am 18.4 17.0 14.4 77 2.3 E 15 19 8 10 1024.1 1024.0 0.0
31/12:00am 18.3 17.4 14.8 80 2.0 E 13 17 7 9 1024.2 1024.1 0.0
 
Date/Time
CDT
Temp
°C
App
Temp
°C
Dew
Point
Rel
Hum
%
Delta-T
°C
Wind Press
QNH
hPa
Press
MSL
hPa
Rain
since 9 am
mm
Dir
 
Spd
km/h
Gust
km/h
Spd
kts
Gust
kts
30/11:30pm 18.4 17.4 14.6 78 2.2 E 13 17 7 9 1024.5 1024.4 0.0
30/11:00pm 18.6 17.2 14.4 76 2.4 E 15 19 8 10 1024.6 1024.5 0.0
30/10:30pm 19.1 18.0 15.2 78 2.3 ESE 15 20 8 11 1024.5 1024.4 0.0
30/10:00pm 19.1 18.3 15.0 77 2.4 ESE 13 19 7 10 1024.8 1024.7 0.0
30/09:30pm 18.9 18.8 15.9 83 1.8 SE 11 15 6 8 1024.7 1024.6 0.0
30/09:00pm 19.0 18.8 15.8 82 1.9 SE 11 15 6 8 1024.7 1024.6 0.0
30/08:30pm 18.7 18.5 15.8 83 1.7 S 11 13 6 7 1024.4 1024.3 0.0
30/08:00pm 18.6 18.8 15.7 83 1.7 S 9 11 5 6 1024.2 1024.1 0.0
30/07:30pm 19.2 19.6 15.3 78 2.3 SSE 7 9 4 5 1023.8 1023.7 0.0
30/07:00pm 20.1 20.4 15.0 72 3.0 SSE 7 9 4 5 1023.8 1023.7 0.0
30/06:30pm 20.6 19.9 14.2 66 3.7 SE 11 15 6 8 1023.7 1023.6 0.0
30/06:00pm 21.1 20.2 13.8 63 4.2 SE 11 15 6 8 1023.7 1023.6 0.0
30/05:30pm 21.3 19.8 13.0 59 4.7 SE 13 15 7 8 1023.6 1023.5 0.0
30/05:00pm 21.6 20.0 12.8 57 5.0 SE 13 17 7 9 1023.5 1023.4 0.0
30/04:30pm 21.4 19.8 13.8 62 4.4 SSE 15 19 8 10 1023.6 1023.5 0.0
30/04:00pm 20.6 19.1 14.2 66 3.7 SE 15 19 8 10 1023.6 1023.5 0.0
30/03:30pm 20.6 19.1 14.2 66 3.7 SE 15 19 8 10 1023.7 1023.6 0.0
30/03:00pm 21.2 19.2 13.9 63 4.2 SE 17 19 9 10 1024.0 1023.9 0.0
30/02:30pm 21.8 20.2 13.8 60 4.6 SE 15 19 8 10 1024.3 1024.2 0.0
30/02:00pm 20.9 19.5 13.4 62 4.3 SE 13 17 7 9 1024.5 1024.4 0.0
30/01:30pm 20.8 19.0 13.4 62 4.2 SE 15 17 8 9 1024.7 1024.6 0.0
30/01:00pm 20.7 19.1 13.9 65 3.9 ESE 15 20 8 11 1024.9 1024.8 0.0
30/12:30pm 20.5 19.4 14.3 67 3.6 ESE 13 19 7 10 1025.2 1025.1 0.0
30/12:00pm 20.6 19.9 14.4 67 3.6 SE 11 17 6 9 1025.4 1025.3 0.0
30/11:30am 20.5 19.9 14.7 69 3.4 ESE 11 17 6 9 1025.6 1025.5 0.0
30/11:00am 20.4 19.8 14.7 70 3.3 ESE 11 15 6 8 1025.8 1025.7 0.0
30/10:30am 20.3 19.9 15.2 72 3.0 ESE 11 15 6 8 1025.8 1025.7 0.0
30/10:00am 20.1 20.0 15.0 72 3.0 SE 9 13 5 7 1025.7 1025.6 0.0
30/09:30am 19.4 19.3 14.9 75 2.6 SE 9 11 5 6 1025.5 1025.4 0.0
30/09:00am 18.9 18.8 14.9 77 2.3 SE 9 11 5 6 1025.1 1025.0 0.0
30/08:30am 18.0 18.1 15.4 85 1.5 SE 9 13 5 7 1024.7 1024.6 0.0
30/08:00am 16.5 16.4 14.9 90 0.9 SE 9 9 5 5 1024.4 1024.3 0.0
30/07:30am 15.7 15.7 14.3 91 0.8 SE 7 9 4 5 1024.1 1024.0 0.0
30/07:00am 15.3 15.2 13.9 91 0.8 SSE 7 9 4 5 1023.8 1023.7 0.0
30/06:30am 15.6 16.3 14.4 93 0.7 SE 4 6 2 3 1023.5 1023.4 0.0
30/06:00am 15.8 16.0 14.6 93 0.7 SSE 7 9 4 5 1023.3 1023.2 0.0
30/05:30am 16.0 16.2 14.8 93 0.7 SSE 7 11 4 6 1023.1 1023.0 0.0
30/05:00am 14.9 14.5 14.0 94 0.5 SSE 9 11 5 6 1022.9 1022.8 0.0
30/04:30am 15.4 15.7 14.5 94 0.5 SSE 6 7 3 4 1023.0 1022.9 0.0
30/04:00am 15.5 16.2 14.4 93 0.6 SE 4 6 2 3 1022.9 1022.8 0.0
30/03:30am 15.5 15.5 14.1 91 0.8 SSE 7 9 4 5 1022.9 1022.8 0.0
30/03:00am 16.4 16.6 14.8 90 0.9 SSE 7 9 4 5 1023.1 1023.0 0.0
30/02:30am 15.4 15.4 14.2 92 0.7 S 7 9 4 5 1023.4 1023.3 0.0
30/02:00am 16.7 17.1 14.8 88 1.1 S 6 9 3 5 1023.6 1023.5 0.0
30/01:30am 16.9 17.2 15.0 88 1.1 S 7 9 4 5 1023.7 1023.6 0.0
30/01:00am 16.8 17.0 14.7 87 1.2 S 7 13 4 7 1023.7 1023.6 0.0
30/12:30am 17.3 17.3 15.2 87 1.2 S 9 13 5 7 1023.7 1023.6 0.0
30/12:00am 17.2 16.5 15.3 88 1.1 SSW 13 15 7 8 1023.9 1023.8 0.0
 
Date/Time
CDT
Temp
°C
App
Temp
°C
Dew
Point
Rel
Hum
%
Delta-T
°C
Wind Press
QNH
hPa
Press
MSL
hPa
Rain
since 9 am
mm
Dir
 
Spd
km/h
Gust
km/h
Spd
kts
Gust
kts
29/11:30pm 17.0 16.6 15.1 88 1.1 SSW 11 13 6 7 1024.1 1024.0 0.0
29/11:00pm 16.9 16.7 14.8 87 1.2 SSW 9 11 5 6 1024.1 1024.0 0.0
29/10:30pm 16.0 15.3 13.3 84 1.5 SW 9 11 5 6 1024.1 1024.0 0.0
29/10:00pm 15.8 15.5 13.3 85 1.4 SW 7 9 4 5 1023.9 1023.8 0.0
29/09:30pm 16.0 15.6 13.1 83 1.6 SW 7 9 4 5 1023.7 1023.6 0.0
29/09:00pm 15.8 15.4 12.5 81 1.8 WSW 6 7 3 4 1023.4 1023.3 0.0
29/08:30pm 16.5 16.5 13.6 83 1.6 WSW 6 6 3 3 1023.2 1023.1 0.0
29/08:00pm 16.7 16.3 13.1 79 2.0 SW 7 9 4 5 1022.9 1022.8 0.0
29/07:30pm 18.4 18.8 13.8 74 2.6 S 4 4 2 2 1022.6 1022.5 0.0
29/07:00pm 19.2 19.7 14.0 72 3.0 S 4 6 2 3 1022.4 1022.3 0.0
29/06:30pm 19.7 19.6 13.8 69 3.4 S 7 11 4 6 1022.2 1022.1 0.0
29/06:00pm 20.2 20.2 14.1 68 3.5 SSW 7 13 4 7 1022.0 1021.9 0.0
29/05:30pm 20.6 20.2 14.0 66 3.8 SSW 9 17 5 9 1021.9 1021.8 0.0
29/05:00pm 21.4 19.7 12.3 56 5.1 S 13 17 7 9 1021.7 1021.6 0.0
29/04:30pm 20.9 19.6 11.3 54 5.3 S 9 13 5 7 1021.7 1021.6 0.0
29/04:00pm 20.9 18.8 11.0 53 5.4 SE 13 19 7 10 1021.6 1021.5 0.0
29/03:30pm 22.1 20.5 10.3 47 6.4 SE 9 15 5 8 1021.7 1021.6 0.0
29/03:00pm 21.3 20.2 10.7 50 5.8 SE 7 11 4 6 1022.0 1021.9 0.0
29/02:30pm 20.7 19.5 9.4 48 6.0 SE 6 11 3 6 1022.2 1022.1 0.0
29/02:00pm 20.7 18.2 8.4 45 6.4 ESE 11 15 6 8 1022.4 1022.3 0.0
29/01:30pm 21.9 18.9 7.8 40 7.3 SE 13 17 7 9 1022.5 1022.4 0.0
29/01:00pm 21.9 19.0 8.1 41 7.2 ESE 13 19 7 10 1022.7 1022.6 0.0
29/12:30pm 22.0 19.1 8.2 41 7.2 SE 13 17 7 9 1022.8 1022.7 0.0
29/12:00pm 21.1 19.1 8.7 45 6.5 SE 9 13 5 7 1022.9 1022.8 0.0
29/11:30am 21.3 19.6 8.3 43 6.8 E 7 13 4 7 1022.9 1022.8 0.0
29/11:00am 21.1 19.0 8.2 43 6.7 ENE 9 13 5 7 1022.9 1022.8 0.0
29/10:30am 20.7 19.6 8.4 45 6.4 NE 4 7 2 4 1023.1 1023.0 0.0
29/10:00am 19.8 19.0 9.6 51 5.4 NE 4 6 2 3 1023.2 1023.1 0.0
29/09:30am 19.3 18.3 9.0 51 5.4 NNW 4 6 2 3 1023.0 1022.9 0.0
29/09:00am 17.8 17.0 8.2 53 4.9 NW 2 4 1 2 1022.6 1022.5 0.0
29/08:30am 16.0 14.4 7.8 58 4.1 NW 6 9 3 5 1022.5 1022.4 0.0
29/08:00am 14.7 13.3 8.8 68 3.0 W 6 6 3 3 1022.3 1022.2 0.0
29/07:30am 13.8 12.8 8.8 72 2.5 WNW 4 6 2 3 1022.0 1021.9 0.0
29/07:00am 13.7 12.5 9.4 75 2.2 NNW 6 7 3 4 1021.6 1021.5 0.0
29/06:30am 12.5 11.7 9.5 82 1.5 NNW 4 6 2 3 1021.2 1021.1 0.0
29/06:00am 12.0 10.4 8.8 81 1.6 NNW 7 9 4 5 1021.1 1021.0 0.0
29/05:30am 13.4 12.0 9.5 77 2.0 N 7 9 4 5 1020.7 1020.6 0.0
29/05:00am 13.1 11.8 9.3 78 1.9 NW 6 7 3 4 1020.7 1020.6 0.0
29/04:30am 14.0 13.6 9.9 76 2.1 NW 2 6 1 3 1020.6 1020.5 0.0
29/04:00am 13.8 12.6 9.7 76 2.1 NW 6 7 3 4 1020.7 1020.6 0.0
29/03:30am 13.1 11.6 9.1 77 2.0 NNW 7 7 4 4 1020.5 1020.4 0.0
29/03:00am 12.8 11.3 9.0 78 1.9 NNW 7 9 4 5 1020.7 1020.6 0.0
29/02:30am 12.6 11.4 9.4 81 1.6 NW 6 7 3 4 1021.0 1020.9 0.0
29/02:00am 12.3 10.8 9.1 81 1.6 NW 7 7 4 4 1021.2 1021.1 0.0
29/01:30am 12.2 10.8 9.4 83 1.4 WNW 7 9 4 5 1021.4 1021.3 0.0
29/01:00am 11.8 10.2 8.8 82 1.5 WNW 7 9 4 5 1021.5 1021.4 0.0
29/12:30am 11.2 9.0 7.7 79 1.7 NW 9 13 5 7 1021.8 1021.7 0.0
29/12:00am 11.5 9.2 7.6 77 1.9 NNW 9 9 5 5 1021.6 1021.5 0.0
 
Date/Time
CDT
Temp
°C
App
Temp
°C
Dew
Point
Rel
Hum
%
Delta-T
°C
Wind Press
QNH
hPa
Press
MSL
hPa
Rain
since 9 am
mm
Dir
 
Spd
km/h
Gust
km/h
Spd
kts
Gust
kts
28/11:30pm 11.6 9.9 7.7 77 1.9 NNW 6 6 3 3 1021.6 1021.5 0.0
28/11:00pm 12.4 10.6 8.1 75 2.1 NNW 7 9 4 5 1021.6 1021.5 0.0
28/10:30pm 13.0 11.8 7.9 71 2.5 NNW 4 7 2 4 1021.8 1021.7 0.0
28/10:00pm 13.7 11.8 7.6 66 3.0 NNW 7 7 4 4 1022.1 1022.0 0.0
28/09:30pm 13.8 12.9 9.3 74 2.3 NW 4 6 2 3 1022.0 1021.9 0.0
28/09:00pm 14.6 13.5 10.0 74 2.4 NNW 6 7 3 4 1021.8 1021.7 0.0
28/08:30pm 17.0 16.5 12.1 73 2.7 ENE 6 7 3 4 1021.5 1021.4 0.0
28/08:00pm 16.6 15.9 11.4 71 2.8 ESE 6 7 3 4 1021.3 1021.2 0.0
28/07:30pm 16.9 15.9 11.1 68 3.1 E 7 9 4 5 1021.3 1021.2 0.0
28/07:00pm 18.2 17.4 11.2 63 3.8 ESE 6 7 3 4 1021.0 1020.9 0.0
28/06:30pm 18.5 17.5 11.1 62 4.0 ESE 7 9 4 5 1020.9 1020.8 0.0
28/06:00pm 19.0 17.5 10.6 58 4.5 E 9 9 5 5 1020.9 1020.8 0.0
28/05:30pm 18.8 17.3 10.6 59 4.4 E 9 13 5 7 1020.8 1020.7 0.0
28/05:00pm 19.0 16.6 10.0 56 4.8 E 13 17 7 9 1020.8 1020.7 0.0
28/04:30pm 19.6 17.2 10.1 54 5.1 ENE 13 19 7 10 1021.1 1021.0 0.0
28/04:00pm 19.3 16.8 9.7 53 5.1 ENE 13 17 7 9 1021.4 1021.3 0.0

Other Formats:

Comma delimited format used in spreadsheet applications
http://www.bom.gov.au/fwo/IDS60801/IDS60801.94809.axf

JavaScript Object Notation format (JSON) in row-major order
http://www.bom.gov.au/fwo/IDS60801/IDS60801.94809.json